sensor_id;sensor_type;location;lat;lon;timestamp;temperature;humidity
46590;DHT22;32313;48.722;9.362;2023-06-14T00:02:08;10.90;99.90
46590;DHT22;32313;48.722;9.362;2023-06-14T00:04:34;10.90;99.90
46590;DHT22;32313;48.722;9.362;2023-06-14T00:07:00;10.80;99.90
46590;DHT22;32313;48.722;9.362;2023-06-14T00:09:26;10.80;99.90
46590;DHT22;32313;48.722;9.362;2023-06-14T00:11:52;10.60;99.90
46590;DHT22;32313;48.722;9.362;2023-06-14T00:14:23;10.50;99.90
46590;DHT22;32313;48.722;9.362;2023-06-14T00:16:49;10.40;99.90
46590;DHT22;32313;48.722;9.362;2023-06-14T00:19:15;10.30;99.90
46590;DHT22;32313;48.722;9.362;2023-06-14T00:21:41;10.30;99.90
46590;DHT22;32313;48.722;9.362;2023-06-14T00:24:08;10.30;99.90
46590;DHT22;32313;48.722;9.362;2023-06-14T00:26:34;10.20;99.90
46590;DHT22;32313;48.722;9.362;2023-06-14T00:29:00;10.20;99.90
46590;DHT22;32313;48.722;9.362;2023-06-14T00:31:26;10.10;99.90
46590;DHT22;32313;48.722;9.362;2023-06-14T00:33:53;10.10;99.90
46590;DHT22;32313;48.722;9.362;2023-06-14T00:36:19;10.00;99.90
46590;DHT22;32313;48.722;9.362;2023-06-14T00:38:45;10.00;99.90
46590;DHT22;32313;48.722;9.362;2023-06-14T00:41:11;10.00;99.90
46590;DHT22;32313;48.722;9.362;2023-06-14T00:43:37;10.10;99.90
46590;DHT22;32313;48.722;9.362;2023-06-14T00:46:02;10.00;99.90
46590;DHT22;32313;48.722;9.362;2023-06-14T00:48:30;10.00;99.90
46590;DHT22;32313;48.722;9.362;2023-06-14T00:50:58;10.00;99.90
46590;DHT22;32313;48.722;9.362;2023-06-14T00:53:28;9.90;99.90
46590;DHT22;32313;48.722;9.362;2023-06-14T00:55:55;9.80;99.90
46590;DHT22;32313;48.722;9.362;2023-06-14T00:58:22;9.70;99.90
46590;DHT22;32313;48.722;9.362;2023-06-14T01:00:48;9.50;99.90
46590;DHT22;32313;48.722;9.362;2023-06-14T01:03:14;9.40;99.90
46590;DHT22;32313;48.722;9.362;2023-06-14T01:05:48;9.40;99.90
46590;DHT22;32313;48.722;9.362;2023-06-14T01:08:57;9.30;99.90
46590;DHT22;32313;48.722;9.362;2023-06-14T01:11:31;9.30;99.90
46590;DHT22;32313;48.722;9.362;2023-06-14T01:14:00;9.30;99.90
46590;DHT22;32313;48.722;9.362;2023-06-14T01:16:28;9.30;99.90
46590;DHT22;32313;48.722;9.362;2023-06-14T01:18:55;9.30;99.90
46590;DHT22;32313;48.722;9.362;2023-06-14T01:21:23;9.30;99.90
46590;DHT22;32313;48.722;9.362;2023-06-14T01:23:50;9.40;99.90
46590;DHT22;32313;48.722;9.362;2023-06-14T01:26:22;9.40;99.90
46590;DHT22;32313;48.722;9.362;2023-06-14T01:28:49;9.40;99.90
46590;DHT22;32313;48.722;9.362;2023-06-14T01:31:20;9.40;99.90
46590;DHT22;32313;48.722;9.362;2023-06-14T01:33:52;9.40;99.90
46590;DHT22;32313;48.722;9.362;2023-06-14T01:36:19;9.40;99.90
46590;DHT22;32313;48.722;9.362;2023-06-14T01:38:49;9.40;99.90
46590;DHT22;32313;48.722;9.362;2023-06-14T01:41:16;9.30;99.90
46590;DHT22;32313;48.722;9.362;2023-06-14T01:43:44;9.30;99.90
46590;DHT22;32313;48.722;9.362;2023-06-14T01:46:11;9.20;99.90
46590;DHT22;32313;48.722;9.362;2023-06-14T01:48:38;9.20;99.90
46590;DHT22;32313;48.722;9.362;2023-06-14T01:51:04;9.10;99.90
46590;DHT22;32313;48.722;9.362;2023-06-14T01:53:30;9.10;99.90
46590;DHT22;32313;48.722;9.362;2023-06-14T01:55:56;9.00;99.90
46590;DHT22;32313;48.722;9.362;2023-06-14T01:58:22;8.90;99.90
46590;DHT22;32313;48.722;9.362;2023-06-14T02:00:49;8.80;99.90
46590;DHT22;32313;48.722;9.362;2023-06-14T02:03:16;8.70;99.90
46590;DHT22;32313;48.722;9.362;2023-06-14T02:05:42;8.70;99.90
46590;DHT22;32313;48.722;9.362;2023-06-14T02:08:08;8.50;99.90
46590;DHT22;32313;48.722;9.362;2023-06-14T02:10:34;8.50;99.90
46590;DHT22;32313;48.722;9.362;2023-06-14T02:13:00;8.50;99.90
46590;DHT22;32313;48.722;9.362;2023-06-14T02:15:26;8.40;99.90
46590;DHT22;32313;48.722;9.362;2023-06-14T02:18:03;8.30;99.90
46590;DHT22;32313;48.722;9.362;2023-06-14T02:20:32;8.20;99.90
46590;DHT22;32313;48.722;9.362;2023-06-14T02:22:58;8.20;99.90
46590;DHT22;32313;48.722;9.362;2023-06-14T02:25:24;8.20;99.90
46590;DHT22;32313;48.722;9.362;2023-06-14T02:27:49;8.30;99.90
46590;DHT22;32313;48.722;9.362;2023-06-14T02:30:15;8.30;99.90
46590;DHT22;32313;48.722;9.362;2023-06-14T02:32:41;8.30;99.90
46590;DHT22;32313;48.722;9.362;2023-06-14T02:35:08;8.30;99.90
46590;DHT22;32313;48.722;9.362;2023-06-14T02:37:34;8.40;99.90
46590;DHT22;32313;48.722;9.362;2023-06-14T02:40:00;8.50;99.90
46590;DHT22;32313;48.722;9.362;2023-06-14T02:42:26;8.40;99.90
46590;DHT22;32313;48.722;9.362;2023-06-14T02:44:52;8.40;99.90
46590;DHT22;32313;48.722;9.362;2023-06-14T02:47:18;8.40;99.90
46590;DHT22;32313;48.722;9.362;2023-06-14T02:49:44;8.30;99.90
46590;DHT22;32313;48.722;9.362;2023-06-14T02:52:13;8.30;99.90
46590;DHT22;32313;48.722;9.362;2023-06-14T02:54:39;8.20;99.90
46590;DHT22;32313;48.722;9.362;2023-06-14T02:57:06;8.20;99.90
46590;DHT22;32313;48.722;9.362;2023-06-14T02:59:36;8.20;99.90
46590;DHT22;32313;48.722;9.362;2023-06-14T03:02:03;8.20;99.90
46590;DHT22;32313;48.722;9.362;2023-06-14T03:04:31;8.10;99.90
46590;DHT22;32313;48.722;9.362;2023-06-14T03:07:03;8.00;99.90
46590;DHT22;32313;48.722;9.362;2023-06-14T03:09:36;7.80;99.90
46590;DHT22;32313;48.722;9.362;2023-06-14T03:12:04;7.80;99.90
46590;DHT22;32313;48.722;9.362;2023-06-14T03:14:31;7.80;99.90
46590;DHT22;32313;48.722;9.362;2023-06-14T03:16:57;7.80;99.90
46590;DHT22;32313;48.722;9.362;2023-06-14T03:19:24;7.80;99.90
46590;DHT22;32313;48.722;9.362;2023-06-14T03:21:53;7.80;99.90
46590;DHT22;32313;48.722;9.362;2023-06-14T03:24:26;7.80;99.90
46590;DHT22;32313;48.722;9.362;2023-06-14T03:26:57;7.80;99.90
46590;DHT22;32313;48.722;9.362;2023-06-14T03:29:24;7.70;99.90
46590;DHT22;32313;48.722;9.362;2023-06-14T03:32:02;7.70;99.90
46590;DHT22;32313;48.722;9.362;2023-06-14T03:34:35;7.70;99.90
46590;DHT22;32313;48.722;9.362;2023-06-14T03:37:02;7.70;99.90
46590;DHT22;32313;48.722;9.362;2023-06-14T03:39:29;7.70;99.90
46590;DHT22;32313;48.722;9.362;2023-06-14T03:41:55;7.70;99.90
46590;DHT22;32313;48.722;9.362;2023-06-14T03:44:21;7.70;99.90
46590;DHT22;32313;48.722;9.362;2023-06-14T03:46:47;7.80;99.90
46590;DHT22;32313;48.722;9.362;2023-06-14T03:49:13;7.80;99.90
46590;DHT22;32313;48.722;9.362;2023-06-14T03:51:39;7.80;99.90
46590;DHT22;32313;48.722;9.362;2023-06-14T03:54:06;7.80;99.90
46590;DHT22;32313;48.722;9.362;2023-06-14T03:56:32;7.90;99.90
46590;DHT22;32313;48.722;9.362;2023-06-14T03:58:58;7.90;99.90
46590;DHT22;32313;48.722;9.362;2023-06-14T04:01:27;8.00;99.90
46590;DHT22;32313;48.722;9.362;2023-06-14T04:03:57;8.10;99.90
46590;DHT22;32313;48.722;9.362;2023-06-14T04:06:24;8.20;99.90
46590;DHT22;32313;48.722;9.362;2023-06-14T04:08:57;8.20;99.90
46590;DHT22;32313;48.722;9.362;2023-06-14T04:11:27;8.20;99.90
46590;DHT22;32313;48.722;9.362;2023-06-14T04:13:53;8.20;99.90
46590;DHT22;32313;48.722;9.362;2023-06-14T04:16:22;8.30;99.90
46590;DHT22;32313;48.722;9.362;2023-06-14T04:18:48;8.40;99.90
46590;DHT22;32313;48.722;9.362;2023-06-14T04:21:17;8.40;99.90
46590;DHT22;32313;48.722;9.362;2023-06-14T04:23:43;8.50;99.90
46590;DHT22;32313;48.722;9.362;2023-06-14T04:26:10;8.50;99.90
46590;DHT22;32313;48.722;9.362;2023-06-14T04:28:36;8.60;99.90
46590;DHT22;32313;48.722;9.362;2023-06-14T04:31:07;8.70;99.90
46590;DHT22;32313;48.722;9.362;2023-06-14T04:33:36;8.80;99.90
46590;DHT22;32313;48.722;9.362;2023-06-14T04:36:12;8.90;99.90
46590;DHT22;32313;48.722;9.362;2023-06-14T04:38:39;9.00;99.90
46590;DHT22;32313;48.722;9.362;2023-06-14T04:41:07;9.10;99.90
46590;DHT22;32313;48.722;9.362;2023-06-14T04:43:38;9.20;99.90
46590;DHT22;32313;48.722;9.362;2023-06-14T04:46:05;9.30;99.90
46590;DHT22;32313;48.722;9.362;2023-06-14T04:48:35;9.40;99.90
46590;DHT22;32313;48.722;9.362;2023-06-14T04:51:00;9.50;99.90
46590;DHT22;32313;48.722;9.362;2023-06-14T04:53:26;9.50;99.90
46590;DHT22;32313;48.722;9.362;2023-06-14T04:55:55;9.70;99.90
46590;DHT22;32313;48.722;9.362;2023-06-14T04:58:21;9.80;99.90
46590;DHT22;32313;48.722;9.362;2023-06-14T05:00:47;10.00;99.90
46590;DHT22;32313;48.722;9.362;2023-06-14T05:03:13;10.10;99.90
46590;DHT22;32313;48.722;9.362;2023-06-14T05:05:41;10.20;99.90
46590;DHT22;32313;48.722;9.362;2023-06-14T05:08:07;10.30;99.90
46590;DHT22;32313;48.722;9.362;2023-06-14T05:10:34;10.40;99.90
46590;DHT22;32313;48.722;9.362;2023-06-14T05:13:01;10.50;99.90
46590;DHT22;32313;48.722;9.362;2023-06-14T05:15:29;10.70;99.90
46590;DHT22;32313;48.722;9.362;2023-06-14T05:17:55;10.80;99.90
46590;DHT22;32313;48.722;9.362;2023-06-14T05:20:24;11.00;99.90
46590;DHT22;32313;48.722;9.362;2023-06-14T05:22:55;11.10;99.90
46590;DHT22;32313;48.722;9.362;2023-06-14T05:25:22;11.20;99.90
46590;DHT22;32313;48.722;9.362;2023-06-14T05:27:48;11.30;99.90
46590;DHT22;32313;48.722;9.362;2023-06-14T05:30:15;11.40;99.90
46590;DHT22;32313;48.722;9.362;2023-06-14T05:32:41;11.50;99.90
46590;DHT22;32313;48.722;9.362;2023-06-14T05:35:07;11.70;99.90
46590;DHT22;32313;48.722;9.362;2023-06-14T05:37:33;11.80;99.90
46590;DHT22;32313;48.722;9.362;2023-06-14T05:39:59;11.90;99.90
46590;DHT22;32313;48.722;9.362;2023-06-14T05:42:25;12.00;99.90
46590;DHT22;32313;48.722;9.362;2023-06-14T05:44:51;12.20;99.90
46590;DHT22;32313;48.722;9.362;2023-06-14T05:47:16;12.40;99.90
46590;DHT22;32313;48.722;9.362;2023-06-14T05:49:42;12.50;99.90
46590;DHT22;32313;48.722;9.362;2023-06-14T05:52:08;12.70;99.90
46590;DHT22;32313;48.722;9.362;2023-06-14T05:54:34;12.80;99.90
46590;DHT22;32313;48.722;9.362;2023-06-14T05:57:00;13.00;99.90
46590;DHT22;32313;48.722;9.362;2023-06-14T05:59:27;13.20;99.90
46590;DHT22;32313;48.722;9.362;2023-06-14T06:01:53;13.30;99.90
46590;DHT22;32313;48.722;9.362;2023-06-14T06:04:19;13.40;99.90
46590;DHT22;32313;48.722;9.362;2023-06-14T06:06:45;13.60;99.90
46590;DHT22;32313;48.722;9.362;2023-06-14T06:09:12;13.70;99.90
46590;DHT22;32313;48.722;9.362;2023-06-14T06:11:40;13.90;99.90
46590;DHT22;32313;48.722;9.362;2023-06-14T06:14:06;13.90;99.90
46590;DHT22;32313;48.722;9.362;2023-06-14T06:16:32;14.10;99.90
46590;DHT22;32313;48.722;9.362;2023-06-14T06:18:58;14.10;99.90
46590;DHT22;32313;48.722;9.362;2023-06-14T06:21:24;14.30;99.90
46590;DHT22;32313;48.722;9.362;2023-06-14T06:23:50;14.60;99.90
46590;DHT22;32313;48.722;9.362;2023-06-14T06:26:16;14.80;99.90
46590;DHT22;32313;48.722;9.362;2023-06-14T06:28:42;15.10;99.90
46590;DHT22;32313;48.722;9.362;2023-06-14T06:31:08;15.30;99.90
46590;DHT22;32313;48.722;9.362;2023-06-14T06:33:33;15.40;99.90
46590;DHT22;32313;48.722;9.362;2023-06-14T06:35:59;15.70;99.90
46590;DHT22;32313;48.722;9.362;2023-06-14T06:38:25;16.00;99.90
46590;DHT22;32313;48.722;9.362;2023-06-14T06:40:51;16.20;99.90
46590;DHT22;32313;48.722;9.362;2023-06-14T06:43:16;17.00;99.90
46590;DHT22;32313;48.722;9.362;2023-06-14T06:45:46;18.00;99.90
46590;DHT22;32313;48.722;9.362;2023-06-14T06:48:12;18.90;99.90
46590;DHT22;32313;48.722;9.362;2023-06-14T06:50:38;19.20;99.90
46590;DHT22;32313;48.722;9.362;2023-06-14T06:53:04;19.60;99.90
46590;DHT22;32313;48.722;9.362;2023-06-14T06:55:31;20.10;99.90
46590;DHT22;32313;48.722;9.362;2023-06-14T06:57:56;20.40;99.90
46590;DHT22;32313;48.722;9.362;2023-06-14T07:00:22;20.80;99.90
46590;DHT22;32313;48.722;9.362;2023-06-14T07:02:48;21.10;99.90
46590;DHT22;32313;48.722;9.362;2023-06-14T07:05:14;21.60;99.10
46590;DHT22;32313;48.722;9.362;2023-06-14T07:07:40;22.00;96.00
46590;DHT22;32313;48.722;9.362;2023-06-14T07:10:06;22.20;94.80
46590;DHT22;32313;48.722;9.362;2023-06-14T07:12:33;22.50;93.80
46590;DHT22;32313;48.722;9.362;2023-06-14T07:15:01;22.90;92.10
46590;DHT22;32313;48.722;9.362;2023-06-14T07:17:28;23.30;91.20
46590;DHT22;32313;48.722;9.362;2023-06-14T07:19:54;23.70;90.70
46590;DHT22;32313;48.722;9.362;2023-06-14T07:22:20;23.80;89.50
46590;DHT22;32313;48.722;9.362;2023-06-14T07:24:46;23.70;84.90
46590;DHT22;32313;48.722;9.362;2023-06-14T07:27:12;23.60;85.40
46590;DHT22;32313;48.722;9.362;2023-06-14T07:29:38;23.70;83.10
46590;DHT22;32313;48.722;9.362;2023-06-14T07:32:05;23.80;81.20
46590;DHT22;32313;48.722;9.362;2023-06-14T07:34:31;24.00;79.80
46590;DHT22;32313;48.722;9.362;2023-06-14T07:36:57;24.10;77.10
46590;DHT22;32313;48.722;9.362;2023-06-14T07:39:22;24.20;78.50
46590;DHT22;32313;48.722;9.362;2023-06-14T07:41:49;24.70;77.60
46590;DHT22;32313;48.722;9.362;2023-06-14T07:44:15;24.70;76.70
46590;DHT22;32313;48.722;9.362;2023-06-14T07:46:41;24.60;75.20
46590;DHT22;32313;48.722;9.362;2023-06-14T07:49:07;24.70;75.60
46590;DHT22;32313;48.722;9.362;2023-06-14T07:51:33;24.70;74.40
46590;DHT22;32313;48.722;9.362;2023-06-14T07:54:03;25.20;71.90
46590;DHT22;32313;48.722;9.362;2023-06-14T07:56:29;25.80;71.50
46590;DHT22;32313;48.722;9.362;2023-06-14T07:58:55;26.20;67.80
46590;DHT22;32313;48.722;9.362;2023-06-14T08:01:21;26.30;67.60
46590;DHT22;32313;48.722;9.362;2023-06-14T08:03:49;26.40;65.70
46590;DHT22;32313;48.722;9.362;2023-06-14T08:06:15;26.30;65.00
46590;DHT22;32313;48.722;9.362;2023-06-14T08:08:41;26.50;65.40
46590;DHT22;32313;48.722;9.362;2023-06-14T08:11:07;26.70;63.70
46590;DHT22;32313;48.722;9.362;2023-06-14T08:13:32;26.90;63.80
46590;DHT22;32313;48.722;9.362;2023-06-14T08:15:58;27.20;63.60
46590;DHT22;32313;48.722;9.362;2023-06-14T08:18:26;27.20;62.00
46590;DHT22;32313;48.722;9.362;2023-06-14T08:20:51;27.40;61.30
46590;DHT22;32313;48.722;9.362;2023-06-14T08:23:17;27.60;59.30
46590;DHT22;32313;48.722;9.362;2023-06-14T08:25:46;27.60;59.40
46590;DHT22;32313;48.722;9.362;2023-06-14T08:28:12;27.60;59.00
46590;DHT22;32313;48.722;9.362;2023-06-14T08:30:38;27.80;58.80
46590;DHT22;32313;48.722;9.362;2023-06-14T08:33:03;28.00;58.50
46590;DHT22;32313;48.722;9.362;2023-06-14T08:35:29;28.30;58.50
46590;DHT22;32313;48.722;9.362;2023-06-14T08:37:55;28.40;56.80
46590;DHT22;32313;48.722;9.362;2023-06-14T08:40:23;28.60;57.70
46590;DHT22;32313;48.722;9.362;2023-06-14T08:42:53;28.80;57.50
46590;DHT22;32313;48.722;9.362;2023-06-14T08:45:20;29.20;56.20
46590;DHT22;32313;48.722;9.362;2023-06-14T08:47:47;28.90;55.00
46590;DHT22;32313;48.722;9.362;2023-06-14T08:50:24;28.90;53.60
46590;DHT22;32313;48.722;9.362;2023-06-14T08:52:59;28.90;54.20
46590;DHT22;32313;48.722;9.362;2023-06-14T08:55:29;29.20;53.50
46590;DHT22;32313;48.722;9.362;2023-06-14T08:57:56;29.50;53.10
46590;DHT22;32313;48.722;9.362;2023-06-14T09:00:26;29.10;52.90
46590;DHT22;32313;48.722;9.362;2023-06-14T09:02:52;29.20;53.70
46590;DHT22;32313;48.722;9.362;2023-06-14T09:05:26;29.70;50.00
46590;DHT22;32313;48.722;9.362;2023-06-14T09:07:53;29.80;51.60
46590;DHT22;32313;48.722;9.362;2023-06-14T09:10:22;29.70;51.50
46590;DHT22;32313;48.722;9.362;2023-06-14T09:12:48;29.60;51.40
46590;DHT22;32313;48.722;9.362;2023-06-14T09:15:14;29.60;51.80
46590;DHT22;32313;48.722;9.362;2023-06-14T09:17:41;29.80;51.20
46590;DHT22;32313;48.722;9.362;2023-06-14T09:20:08;30.10;50.80
46590;DHT22;32313;48.722;9.362;2023-06-14T09:22:43;30.00;49.20
46590;DHT22;32313;48.722;9.362;2023-06-14T09:25:09;30.30;50.00
46590;DHT22;32313;48.722;9.362;2023-06-14T09:27:35;30.80;48.50
46590;DHT22;32313;48.722;9.362;2023-06-14T09:30:03;31.10;48.10
46590;DHT22;32313;48.722;9.362;2023-06-14T09:32:29;31.40;46.40
46590;DHT22;32313;48.722;9.362;2023-06-14T09:34:56;31.00;47.10
46590;DHT22;32313;48.722;9.362;2023-06-14T09:37:29;31.20;47.50
46590;DHT22;32313;48.722;9.362;2023-06-14T09:39:56;31.40;46.10
46590;DHT22;32313;48.722;9.362;2023-06-14T09:42:22;31.40;46.70
46590;DHT22;32313;48.722;9.362;2023-06-14T09:44:52;31.00;46.90
46590;DHT22;32313;48.722;9.362;2023-06-14T09:47:20;29.80;46.60
46590;DHT22;32313;48.722;9.362;2023-06-14T09:49:46;28.70;48.30
46590;DHT22;32313;48.722;9.362;2023-06-14T09:52:17;27.50;49.90
46590;DHT22;32313;48.722;9.362;2023-06-14T09:54:45;26.80;51.20
46590;DHT22;32313;48.722;9.362;2023-06-14T09:57:14;26.40;50.40
46590;DHT22;32313;48.722;9.362;2023-06-14T09:59:44;26.30;49.70
46590;DHT22;32313;48.722;9.362;2023-06-14T10:02:35;26.80;49.30
46590;DHT22;32313;48.722;9.362;2023-06-14T10:05:11;28.10;48.20
46590;DHT22;32313;48.722;9.362;2023-06-14T10:08:07;29.20;47.60
46590;DHT22;32313;48.722;9.362;2023-06-14T10:10:33;30.40;45.80
46590;DHT22;32313;48.722;9.362;2023-06-14T10:13:00;31.00;45.20
46590;DHT22;32313;48.722;9.362;2023-06-14T10:15:32;31.70;44.90
46590;DHT22;32313;48.722;9.362;2023-06-14T10:20:49;32.70;42.40
46590;DHT22;32313;48.722;9.362;2023-06-14T10:23:20;33.10;40.90
46590;DHT22;32313;48.722;9.362;2023-06-14T10:25:50;33.40;40.30
46590;DHT22;32313;48.722;9.362;2023-06-14T10:28:20;32.90;39.00
46590;DHT22;32313;48.722;9.362;2023-06-14T10:31:10;32.40;39.90
46590;DHT22;32313;48.722;9.362;2023-06-14T10:33:49;32.20;39.60
46590;DHT22;32313;48.722;9.362;2023-06-14T10:39:04;32.40;39.40
46590;DHT22;32313;48.722;9.362;2023-06-14T10:41:34;32.90;40.40
46590;DHT22;32313;48.722;9.362;2023-06-14T10:46:39;33.90;37.40
46590;DHT22;32313;48.722;9.362;2023-06-14T10:49:06;33.70;38.50
46590;DHT22;32313;48.722;9.362;2023-06-14T10:51:42;34.10;38.80
46590;DHT22;32313;48.722;9.362;2023-06-14T10:54:12;34.20;36.80
46590;DHT22;32313;48.722;9.362;2023-06-14T10:56:49;34.50;37.50
46590;DHT22;32313;48.722;9.362;2023-06-14T10:59:15;34.50;36.30
46590;DHT22;32313;48.722;9.362;2023-06-14T11:04:17;34.50;36.40
46590;DHT22;32313;48.722;9.362;2023-06-14T11:06:49;34.50;34.70
46590;DHT22;32313;48.722;9.362;2023-06-14T11:11:58;33.70;35.00
46590;DHT22;32313;48.722;9.362;2023-06-14T11:14:25;33.60;36.60
46590;DHT22;32313;48.722;9.362;2023-06-14T11:16:51;33.80;37.10
46590;DHT22;32313;48.722;9.362;2023-06-14T11:19:17;34.10;36.60
46590;DHT22;32313;48.722;9.362;2023-06-14T11:21:48;34.50;36.50
46590;DHT22;32313;48.722;9.362;2023-06-14T11:24:14;34.80;36.80
46590;DHT22;32313;48.722;9.362;2023-06-14T11:26:40;35.00;36.10
46590;DHT22;32313;48.722;9.362;2023-06-14T11:29:06;35.00;36.90
46590;DHT22;32313;48.722;9.362;2023-06-14T11:31:32;34.90;35.90
46590;DHT22;32313;48.722;9.362;2023-06-14T11:33:59;35.00;35.70
46590;DHT22;32313;48.722;9.362;2023-06-14T11:36:29;35.20;35.40
46590;DHT22;32313;48.722;9.362;2023-06-14T11:39:03;35.40;32.60
46590;DHT22;32313;48.722;9.362;2023-06-14T11:41:40;35.10;33.00
46590;DHT22;32313;48.722;9.362;2023-06-14T11:44:07;34.70;35.90
46590;DHT22;32313;48.722;9.362;2023-06-14T11:46:33;35.10;33.60
46590;DHT22;32313;48.722;9.362;2023-06-14T11:48:59;35.00;33.80
46590;DHT22;32313;48.722;9.362;2023-06-14T11:51:29;34.00;34.30
46590;DHT22;32313;48.722;9.362;2023-06-14T11:53:55;33.80;34.30
46590;DHT22;32313;48.722;9.362;2023-06-14T11:56:21;33.80;35.40
46590;DHT22;32313;48.722;9.362;2023-06-14T11:58:47;33.00;35.60
46590;DHT22;32313;48.722;9.362;2023-06-14T12:01:19;32.20;37.20
46590;DHT22;32313;48.722;9.362;2023-06-14T12:03:49;31.60;38.10
46590;DHT22;32313;48.722;9.362;2023-06-14T12:06:15;31.10;38.10
46590;DHT22;32313;48.722;9.362;2023-06-14T12:08:43;30.70;39.60
46590;DHT22;32313;48.722;9.362;2023-06-14T12:11:12;30.10;40.30
46590;DHT22;32313;48.722;9.362;2023-06-14T12:13:40;29.70;40.50
46590;DHT22;32313;48.722;9.362;2023-06-14T12:16:10;29.80;41.70
46590;DHT22;32313;48.722;9.362;2023-06-14T12:18:38;30.30;40.40
46590;DHT22;32313;48.722;9.362;2023-06-14T12:21:09;30.20;40.60
46590;DHT22;32313;48.722;9.362;2023-06-14T12:23:45;30.70;39.50
46590;DHT22;32313;48.722;9.362;2023-06-14T12:26:19;31.00;39.10
46590;DHT22;32313;48.722;9.362;2023-06-14T12:28:46;31.30;37.90
46590;DHT22;32313;48.722;9.362;2023-06-14T12:31:16;31.10;38.60
46590;DHT22;32313;48.722;9.362;2023-06-14T12:33:42;30.90;39.50
46590;DHT22;32313;48.722;9.362;2023-06-14T12:36:09;31.10;38.10
46590;DHT22;32313;48.722;9.362;2023-06-14T12:38:36;31.50;37.90
46590;DHT22;32313;48.722;9.362;2023-06-14T12:41:03;32.20;37.60
46590;DHT22;32313;48.722;9.362;2023-06-14T12:43:28;32.50;36.00
46590;DHT22;32313;48.722;9.362;2023-06-14T12:45:54;32.60;36.40
46590;DHT22;32313;48.722;9.362;2023-06-14T12:48:20;32.90;35.60
46590;DHT22;32313;48.722;9.362;2023-06-14T12:50:47;33.30;35.50
46590;DHT22;32313;48.722;9.362;2023-06-14T12:53:13;33.30;35.70
46590;DHT22;32313;48.722;9.362;2023-06-14T12:55:39;33.50;35.80
46590;DHT22;32313;48.722;9.362;2023-06-14T12:58:05;33.60;35.50
46590;DHT22;32313;48.722;9.362;2023-06-14T13:00:31;33.70;34.50
46590;DHT22;32313;48.722;9.362;2023-06-14T13:02:57;33.30;35.10
46590;DHT22;32313;48.722;9.362;2023-06-14T13:05:23;32.50;36.10
46590;DHT22;32313;48.722;9.362;2023-06-14T13:07:50;31.40;36.50
46590;DHT22;32313;48.722;9.362;2023-06-14T13:10:16;30.20;38.10
46590;DHT22;32313;48.722;9.362;2023-06-14T13:12:42;29.10;39.90
46590;DHT22;32313;48.722;9.362;2023-06-14T13:15:09;28.60;41.00
46590;DHT22;32313;48.722;9.362;2023-06-14T13:17:35;28.10;41.60
46590;DHT22;32313;48.722;9.362;2023-06-14T13:20:08;28.40;41.90
46590;DHT22;32313;48.722;9.362;2023-06-14T13:22:34;29.00;39.50
46590;DHT22;32313;48.722;9.362;2023-06-14T13:25:00;28.80;39.80
46590;DHT22;32313;48.722;9.362;2023-06-14T13:27:27;29.20;39.70
46590;DHT22;32313;48.722;9.362;2023-06-14T13:29:55;30.10;39.10
46590;DHT22;32313;48.722;9.362;2023-06-14T13:32:22;31.00;39.40
46590;DHT22;32313;48.722;9.362;2023-06-14T13:34:48;32.20;38.30
46590;DHT22;32313;48.722;9.362;2023-06-14T13:40:30;32.20;37.50
46590;DHT22;32313;48.722;9.362;2023-06-14T13:42:56;32.90;37.20
46590;DHT22;32313;48.722;9.362;2023-06-14T13:45:22;33.90;35.80
46590;DHT22;32313;48.722;9.362;2023-06-14T13:47:47;34.50;34.60
46590;DHT22;32313;48.722;9.362;2023-06-14T13:50:14;34.50;35.10
46590;DHT22;32313;48.722;9.362;2023-06-14T13:52:39;34.00;35.70
46590;DHT22;32313;48.722;9.362;2023-06-14T13:55:06;33.10;35.70
46590;DHT22;32313;48.722;9.362;2023-06-14T13:57:31;32.00;36.10
46590;DHT22;32313;48.722;9.362;2023-06-14T13:59:58;30.70;38.00
46590;DHT22;32313;48.722;9.362;2023-06-14T14:02:27;29.60;39.30
46590;DHT22;32313;48.722;9.362;2023-06-14T14:04:55;28.90;40.70
46590;DHT22;32313;48.722;9.362;2023-06-14T14:07:21;28.40;41.80
46590;DHT22;32313;48.722;9.362;2023-06-14T14:09:47;27.90;43.10
46590;DHT22;32313;48.722;9.362;2023-06-14T14:12:13;27.50;44.20
46590;DHT22;32313;48.722;9.362;2023-06-14T14:14:42;27.80;44.40
46590;DHT22;32313;48.722;9.362;2023-06-14T14:17:08;28.50;44.00
46590;DHT22;32313;48.722;9.362;2023-06-14T14:19:34;29.10;43.40
46590;DHT22;32313;48.722;9.362;2023-06-14T14:22:00;29.80;42.20
46590;DHT22;32313;48.722;9.362;2023-06-14T14:24:26;30.50;41.00
46590;DHT22;32313;48.722;9.362;2023-06-14T14:26:52;31.00;40.70
46590;DHT22;32313;48.722;9.362;2023-06-14T14:29:19;31.60;39.80
46590;DHT22;32313;48.722;9.362;2023-06-14T14:31:45;31.70;38.70
46590;DHT22;32313;48.722;9.362;2023-06-14T14:34:12;31.80;38.40
46590;DHT22;32313;48.722;9.362;2023-06-14T14:36:37;32.50;38.40
46590;DHT22;32313;48.722;9.362;2023-06-14T14:39:08;33.10;35.60
46590;DHT22;32313;48.722;9.362;2023-06-14T14:41:34;32.70;36.30
46590;DHT22;32313;48.722;9.362;2023-06-14T14:44:00;33.20;36.90
46590;DHT22;32313;48.722;9.362;2023-06-14T14:46:27;33.50;35.70
46590;DHT22;32313;48.722;9.362;2023-06-14T14:48:53;33.80;35.40
46590;DHT22;32313;48.722;9.362;2023-06-14T14:51:19;33.80;35.40
46590;DHT22;32313;48.722;9.362;2023-06-14T14:53:45;33.80;35.60
46590;DHT22;32313;48.722;9.362;2023-06-14T14:56:11;34.10;35.10
46590;DHT22;32313;48.722;9.362;2023-06-14T14:58:37;34.60;34.90
46590;DHT22;32313;48.722;9.362;2023-06-14T15:01:03;34.80;33.60
46590;DHT22;32313;48.722;9.362;2023-06-14T15:03:31;34.70;34.60
46590;DHT22;32313;48.722;9.362;2023-06-14T15:05:57;34.60;34.30
46590;DHT22;32313;48.722;9.362;2023-06-14T15:08:23;34.30;34.60
46590;DHT22;32313;48.722;9.362;2023-06-14T15:10:49;34.10;34.70
46590;DHT22;32313;48.722;9.362;2023-06-14T15:13:14;34.00;35.20
46590;DHT22;32313;48.722;9.362;2023-06-14T15:15:40;34.20;35.00
46590;DHT22;32313;48.722;9.362;2023-06-14T15:18:06;34.40;34.50
46590;DHT22;32313;48.722;9.362;2023-06-14T15:20:37;34.30;33.90
46590;DHT22;32313;48.722;9.362;2023-06-14T15:23:02;34.30;34.70
46590;DHT22;32313;48.722;9.362;2023-06-14T15:25:29;34.30;35.00
46590;DHT22;32313;48.722;9.362;2023-06-14T15:27:55;34.20;35.10
46590;DHT22;32313;48.722;9.362;2023-06-14T15:30:22;33.70;33.80
46590;DHT22;32313;48.722;9.362;2023-06-14T15:32:48;33.40;34.70
46590;DHT22;32313;48.722;9.362;2023-06-14T15:35:16;33.50;34.80
46590;DHT22;32313;48.722;9.362;2023-06-14T15:37:42;33.30;34.70
46590;DHT22;32313;48.722;9.362;2023-06-14T15:40:09;33.10;35.10
46590;DHT22;32313;48.722;9.362;2023-06-14T15:42:35;32.80;35.70
46590;DHT22;32313;48.722;9.362;2023-06-14T15:45:00;32.90;35.50
46590;DHT22;32313;48.722;9.362;2023-06-14T15:47:26;32.80;36.10
46590;DHT22;32313;48.722;9.362;2023-06-14T15:49:52;32.50;35.60
46590;DHT22;32313;48.722;9.362;2023-06-14T15:52:18;31.70;37.20
46590;DHT22;32313;48.722;9.362;2023-06-14T15:54:44;30.80;37.90